sensor_id;sensor_type;location;lat;lon;timestamp;P1;durP1;ratioP1;P2;durP2;ratioP2
45322;SDS011;31382;50.200;8.674;2022-12-05T00:04:56;29.25;;;13.30;;
45322;SDS011;31382;50.200;8.674;2022-12-05T00:09:58;33.13;;;13.55;;
45322;SDS011;31382;50.200;8.674;2022-12-05T00:15:00;28.67;;;13.55;;
45322;SDS011;31382;50.200;8.674;2022-12-05T00:20:01;28.50;;;14.05;;
45322;SDS011;31382;50.200;8.674;2022-12-05T00:25:04;31.92;;;14.18;;
45322;SDS011;31382;50.200;8.674;2022-12-05T00:30:06;31.90;;;14.70;;
45322;SDS011;31382;50.200;8.674;2022-12-05T00:35:08;30.90;;;13.73;;
45322;SDS011;31382;50.200;8.674;2022-12-05T00:40:09;31.88;;;12.82;;
45322;SDS011;31382;50.200;8.674;2022-12-05T00:45:11;29.42;;;11.80;;
45322;SDS011;31382;50.200;8.674;2022-12-05T00:50:12;30.75;;;13.35;;
45322;SDS011;31382;50.200;8.674;2022-12-05T00:55:14;30.10;;;11.77;;
45322;SDS011;31382;50.200;8.674;2022-12-05T01:00:15;26.80;;;12.25;;
45322;SDS011;31382;50.200;8.674;2022-12-05T01:05:17;30.48;;;12.80;;
45322;SDS011;31382;50.200;8.674;2022-12-05T01:10:18;25.30;;;11.65;;
45322;SDS011;31382;50.200;8.674;2022-12-05T01:15:20;29.33;;;13.05;;
45322;SDS011;31382;50.200;8.674;2022-12-05T01:20:21;25.17;;;11.57;;
45322;SDS011;31382;50.200;8.674;2022-12-05T01:25:22;25.35;;;12.05;;
45322;SDS011;31382;50.200;8.674;2022-12-05T01:30:24;23.00;;;10.77;;
45322;SDS011;31382;50.200;8.674;2022-12-05T01:35:26;30.80;;;12.98;;
45322;SDS011;31382;50.200;8.674;2022-12-05T01:40:27;25.38;;;11.95;;
45322;SDS011;31382;50.200;8.674;2022-12-05T01:45:34;27.10;;;11.60;;
45322;SDS011;31382;50.200;8.674;2022-12-05T01:50:38;27.45;;;11.27;;
45322;SDS011;31382;50.200;8.674;2022-12-05T01:55:40;25.75;;;12.80;;
45322;SDS011;31382;50.200;8.674;2022-12-05T02:00:41;28.77;;;12.02;;
45322;SDS011;31382;50.200;8.674;2022-12-05T02:05:43;24.77;;;11.48;;
45322;SDS011;31382;50.200;8.674;2022-12-05T02:10:49;24.05;;;11.75;;
45322;SDS011;31382;50.200;8.674;2022-12-05T02:16:02;29.40;;;12.88;;
45322;SDS011;31382;50.200;8.674;2022-12-05T02:21:34;27.48;;;11.77;;
45322;SDS011;31382;50.200;8.674;2022-12-05T02:32:13;25.73;;;12.02;;
45322;SDS011;31382;50.200;8.674;2022-12-05T02:37:27;30.27;;;14.38;;
45322;SDS011;31382;50.200;8.674;2022-12-05T02:42:32;23.08;;;11.82;;
45322;SDS011;31382;50.200;8.674;2022-12-05T02:47:49;26.73;;;12.05;;
45322;SDS011;31382;50.200;8.674;2022-12-05T02:52:53;26.60;;;13.23;;
45322;SDS011;31382;50.200;8.674;2022-12-05T02:57:59;29.55;;;14.23;;
45322;SDS011;31382;50.200;8.674;2022-12-05T03:03:09;31.77;;;13.57;;
45322;SDS011;31382;50.200;8.674;2022-12-05T03:08:15;27.67;;;12.95;;
45322;SDS011;31382;50.200;8.674;2022-12-05T03:13:24;29.00;;;13.35;;
45322;SDS011;31382;50.200;8.674;2022-12-05T03:18:30;31.67;;;13.38;;
45322;SDS011;31382;50.200;8.674;2022-12-05T03:23:42;30.73;;;13.80;;
45322;SDS011;31382;50.200;8.674;2022-12-05T03:34:09;33.47;;;13.23;;
45322;SDS011;31382;50.200;8.674;2022-12-05T03:39:18;31.45;;;13.88;;
45322;SDS011;31382;50.200;8.674;2022-12-05T03:44:34;35.67;;;14.98;;
45322;SDS011;31382;50.200;8.674;2022-12-05T03:49:44;40.17;;;15.07;;
45322;SDS011;31382;50.200;8.674;2022-12-05T03:54:51;33.65;;;14.20;;
45322;SDS011;31382;50.200;8.674;2022-12-05T03:59:56;32.78;;;14.77;;
45322;SDS011;31382;50.200;8.674;2022-12-05T04:05:06;35.28;;;14.70;;
45322;SDS011;31382;50.200;8.674;2022-12-05T04:10:15;35.15;;;15.35;;
45322;SDS011;31382;50.200;8.674;2022-12-05T04:15:24;39.92;;;16.73;;
45322;SDS011;31382;50.200;8.674;2022-12-05T04:26:20;38.38;;;15.35;;
45322;SDS011;31382;50.200;8.674;2022-12-05T04:31:31;41.05;;;15.63;;
45322;SDS011;31382;50.200;8.674;2022-12-05T04:36:41;41.28;;;16.30;;
45322;SDS011;31382;50.200;8.674;2022-12-05T04:41:51;40.05;;;16.50;;
45322;SDS011;31382;50.200;8.674;2022-12-05T04:46:56;42.20;;;16.48;;
45322;SDS011;31382;50.200;8.674;2022-12-05T04:52:02;36.78;;;15.70;;
45322;SDS011;31382;50.200;8.674;2022-12-05T04:57:21;41.20;;;16.00;;
45322;SDS011;31382;50.200;8.674;2022-12-05T05:02:30;42.20;;;17.00;;
45322;SDS011;31382;50.200;8.674;2022-12-05T05:07:42;39.45;;;16.20;;
45322;SDS011;31382;50.200;8.674;2022-12-05T05:12:45;40.45;;;17.67;;
45322;SDS011;31382;50.200;8.674;2022-12-05T05:17:46;39.70;;;16.02;;
45322;SDS011;31382;50.200;8.674;2022-12-05T05:22:48;36.35;;;16.05;;
45322;SDS011;31382;50.200;8.674;2022-12-05T05:27:51;44.90;;;16.85;;
45322;SDS011;31382;50.200;8.674;2022-12-05T05:32:54;38.55;;;15.57;;
45322;SDS011;31382;50.200;8.674;2022-12-05T05:37:55;39.92;;;15.20;;
45322;SDS011;31382;50.200;8.674;2022-12-05T05:42:57;46.10;;;15.48;;
45322;SDS011;31382;50.200;8.674;2022-12-05T05:47:59;43.88;;;14.15;;
45322;SDS011;31382;50.200;8.674;2022-12-05T05:53:00;44.85;;;14.18;;
45322;SDS011;31382;50.200;8.674;2022-12-05T05:58:01;43.20;;;15.32;;
45322;SDS011;31382;50.200;8.674;2022-12-05T06:03:03;52.85;;;16.73;;
45322;SDS011;31382;50.200;8.674;2022-12-05T06:08:04;54.83;;;17.25;;
45322;SDS011;31382;50.200;8.674;2022-12-05T06:13:06;52.75;;;17.10;;
45322;SDS011;31382;50.200;8.674;2022-12-05T06:18:07;39.88;;;14.23;;
45322;SDS011;31382;50.200;8.674;2022-12-05T06:23:09;46.03;;;15.88;;
45322;SDS011;31382;50.200;8.674;2022-12-05T06:28:10;45.75;;;15.75;;
45322;SDS011;31382;50.200;8.674;2022-12-05T06:33:12;51.50;;;16.23;;
45322;SDS011;31382;50.200;8.674;2022-12-05T06:38:13;49.78;;;16.45;;
45322;SDS011;31382;50.200;8.674;2022-12-05T06:43:15;41.85;;;16.35;;
45322;SDS011;31382;50.200;8.674;2022-12-05T06:48:16;42.17;;;15.20;;
45322;SDS011;31382;50.200;8.674;2022-12-05T06:53:18;46.58;;;14.93;;
45322;SDS011;31382;50.200;8.674;2022-12-05T06:58:20;39.08;;;13.98;;
45322;SDS011;31382;50.200;8.674;2022-12-05T07:03:22;40.58;;;14.32;;
45322;SDS011;31382;50.200;8.674;2022-12-05T07:08:23;44.38;;;14.27;;
45322;SDS011;31382;50.200;8.674;2022-12-05T07:13:24;44.08;;;13.77;;
45322;SDS011;31382;50.200;8.674;2022-12-05T07:18:26;45.63;;;13.82;;
45322;SDS011;31382;50.200;8.674;2022-12-05T07:23:28;46.63;;;14.52;;
45322;SDS011;31382;50.200;8.674;2022-12-05T07:28:29;43.97;;;13.95;;
45322;SDS011;31382;50.200;8.674;2022-12-05T07:33:31;43.33;;;14.65;;
45322;SDS011;31382;50.200;8.674;2022-12-05T07:38:32;43.97;;;13.25;;
45322;SDS011;31382;50.200;8.674;2022-12-05T07:43:33;43.25;;;14.52;;
45322;SDS011;31382;50.200;8.674;2022-12-05T07:48:35;43.13;;;12.98;;
45322;SDS011;31382;50.200;8.674;2022-12-05T07:53:37;40.25;;;13.98;;
45322;SDS011;31382;50.200;8.674;2022-12-05T07:58:39;36.35;;;14.55;;
45322;SDS011;31382;50.200;8.674;2022-12-05T08:03:41;44.80;;;14.68;;
45322;SDS011;31382;50.200;8.674;2022-12-05T08:08:43;40.85;;;14.65;;
45322;SDS011;31382;50.200;8.674;2022-12-05T08:13:45;36.83;;;14.27;;
45322;SDS011;31382;50.200;8.674;2022-12-05T08:18:46;49.58;;;16.52;;
45322;SDS011;31382;50.200;8.674;2022-12-05T08:23:48;36.75;;;13.60;;
45322;SDS011;31382;50.200;8.674;2022-12-05T08:28:50;36.40;;;15.27;;
45322;SDS011;31382;50.200;8.674;2022-12-05T08:33:54;36.22;;;13.88;;
45322;SDS011;31382;50.200;8.674;2022-12-05T08:39:00;33.43;;;13.73;;
45322;SDS011;31382;50.200;8.674;2022-12-05T08:44:04;38.45;;;14.52;;
45322;SDS011;31382;50.200;8.674;2022-12-05T08:49:07;39.67;;;14.90;;
45322;SDS011;31382;50.200;8.674;2022-12-05T08:54:08;38.10;;;15.60;;
45322;SDS011;31382;50.200;8.674;2022-12-05T08:59:10;32.55;;;13.65;;
45322;SDS011;31382;50.200;8.674;2022-12-05T09:04:12;34.67;;;14.35;;
45322;SDS011;31382;50.200;8.674;2022-12-05T09:09:13;34.05;;;16.27;;
45322;SDS011;31382;50.200;8.674;2022-12-05T09:14:15;36.28;;;14.45;;
45322;SDS011;31382;50.200;8.674;2022-12-05T09:19:18;36.78;;;14.75;;
45322;SDS011;31382;50.200;8.674;2022-12-05T09:24:25;36.55;;;15.02;;
45322;SDS011;31382;50.200;8.674;2022-12-05T09:29:27;35.92;;;15.20;;
45322;SDS011;31382;50.200;8.674;2022-12-05T09:34:31;33.25;;;15.43;;
45322;SDS011;31382;50.200;8.674;2022-12-05T09:39:33;30.80;;;13.80;;
45322;SDS011;31382;50.200;8.674;2022-12-05T09:49:56;30.52;;;13.77;;
45322;SDS011;31382;50.200;8.674;2022-12-05T09:55:04;30.35;;;13.35;;
45322;SDS011;31382;50.200;8.674;2022-12-05T10:00:11;33.10;;;14.50;;
45322;SDS011;31382;50.200;8.674;2022-12-05T10:05:17;41.17;;;16.40;;
45322;SDS011;31382;50.200;8.674;2022-12-05T10:10:55;31.85;;;14.18;;
45322;SDS011;31382;50.200;8.674;2022-12-05T10:16:02;30.42;;;12.00;;
45322;SDS011;31382;50.200;8.674;2022-12-05T10:21:13;29.45;;;13.73;;
45322;SDS011;31382;50.200;8.674;2022-12-05T10:26:20;35.28;;;14.27;;
45322;SDS011;31382;50.200;8.674;2022-12-05T10:31:24;33.28;;;14.20;;
45322;SDS011;31382;50.200;8.674;2022-12-05T10:36:30;31.70;;;14.10;;
45322;SDS011;31382;50.200;8.674;2022-12-05T10:41:32;33.33;;;14.45;;
45322;SDS011;31382;50.200;8.674;2022-12-05T10:46:34;35.85;;;14.55;;
45322;SDS011;31382;50.200;8.674;2022-12-05T10:51:35;31.73;;;14.30;;
45322;SDS011;31382;50.200;8.674;2022-12-05T10:56:42;31.45;;;14.30;;
45322;SDS011;31382;50.200;8.674;2022-12-05T11:01:53;29.73;;;14.00;;
45322;SDS011;31382;50.200;8.674;2022-12-05T11:07:01;28.70;;;12.85;;
45322;SDS011;31382;50.200;8.674;2022-12-05T11:17:09;30.83;;;14.55;;
45322;SDS011;31382;50.200;8.674;2022-12-05T11:22:30;29.95;;;12.82;;
45322;SDS011;31382;50.200;8.674;2022-12-05T11:27:34;32.63;;;13.35;;
45322;SDS011;31382;50.200;8.674;2022-12-05T11:32:35;28.20;;;12.35;;
45322;SDS011;31382;50.200;8.674;2022-12-05T11:37:59;26.50;;;13.05;;
45322;SDS011;31382;50.200;8.674;2022-12-05T11:43:05;29.10;;;13.43;;
45322;SDS011;31382;50.200;8.674;2022-12-05T11:48:21;28.40;;;13.32;;
45322;SDS011;31382;50.200;8.674;2022-12-05T11:53:43;26.15;;;11.77;;
45322;SDS011;31382;50.200;8.674;2022-12-05T12:10:07;27.63;;;13.13;;
45322;SDS011;31382;50.200;8.674;2022-12-05T12:20:41;27.02;;;13.10;;
45322;SDS011;31382;50.200;8.674;2022-12-05T12:26:04;32.53;;;14.43;;
45322;SDS011;31382;50.200;8.674;2022-12-05T12:58:26;24.33;;;10.63;;
45322;SDS011;31382;50.200;8.674;2022-12-05T13:03:45;27.33;;;11.50;;
45322;SDS011;31382;50.200;8.674;2022-12-05T13:09:22;22.90;;;11.00;;
45322;SDS011;31382;50.200;8.674;2022-12-05T13:14:35;25.50;;;11.93;;
45322;SDS011;31382;50.200;8.674;2022-12-05T13:19:41;20.55;;;9.80;;
45322;SDS011;31382;50.200;8.674;2022-12-05T13:24:46;22.50;;;10.77;;
45322;SDS011;31382;50.200;8.674;2022-12-05T13:29:51;24.05;;;11.57;;
45322;SDS011;31382;50.200;8.674;2022-12-05T13:34:57;26.67;;;11.32;;
45322;SDS011;31382;50.200;8.674;2022-12-05T13:40:01;22.80;;;10.70;;
45322;SDS011;31382;50.200;8.674;2022-12-05T13:45:22;26.33;;;11.32;;
45322;SDS011;31382;50.200;8.674;2022-12-05T13:50:29;23.27;;;10.10;;
45322;SDS011;31382;50.200;8.674;2022-12-05T13:55:35;21.92;;;9.48;;
45322;SDS011;31382;50.200;8.674;2022-12-05T14:00:38;22.70;;;9.88;;
45322;SDS011;31382;50.200;8.674;2022-12-05T14:05:44;23.95;;;10.05;;
45322;SDS011;31382;50.200;8.674;2022-12-05T14:15:52;20.17;;;10.07;;
45322;SDS011;31382;50.200;8.674;2022-12-05T14:21:06;27.33;;;10.52;;
45322;SDS011;31382;50.200;8.674;2022-12-05T14:32:05;27.00;;;10.63;;
45322;SDS011;31382;50.200;8.674;2022-12-05T14:42:19;23.95;;;10.15;;
45322;SDS011;31382;50.200;8.674;2022-12-05T14:47:25;22.63;;;9.98;;
45322;SDS011;31382;50.200;8.674;2022-12-05T14:52:30;28.05;;;10.82;;
45322;SDS011;31382;50.200;8.674;2022-12-05T14:57:31;24.98;;;10.43;;
45322;SDS011;31382;50.200;8.674;2022-12-05T15:02:44;25.15;;;11.07;;
45322;SDS011;31382;50.200;8.674;2022-12-05T15:07:47;29.60;;;11.32;;
45322;SDS011;31382;50.200;8.674;2022-12-05T15:12:52;26.83;;;11.82;;
45322;SDS011;31382;50.200;8.674;2022-12-05T15:17:57;23.25;;;10.15;;
45322;SDS011;31382;50.200;8.674;2022-12-05T15:39:59;30.73;;;11.48;;
45322;SDS011;31382;50.200;8.674;2022-12-05T15:45:16;31.45;;;11.57;;
45322;SDS011;31382;50.200;8.674;2022-12-05T15:55:38;25.42;;;11.60;;
45322;SDS011;31382;50.200;8.674;2022-12-05T16:00:43;28.80;;;11.35;;
45322;SDS011;31382;50.200;8.674;2022-12-05T16:05:48;28.00;;;12.27;;
45322;SDS011;31382;50.200;8.674;2022-12-05T16:11:08;23.52;;;10.40;;
45322;SDS011;31382;50.200;8.674;2022-12-05T16:16:15;25.33;;;10.88;;
45322;SDS011;31382;50.200;8.674;2022-12-05T16:21:32;28.83;;;11.90;;
45322;SDS011;31382;50.200;8.674;2022-12-05T16:26:39;28.17;;;12.70;;
45322;SDS011;31382;50.200;8.674;2022-12-05T16:31:41;27.60;;;11.18;;
45322;SDS011;31382;50.200;8.674;2022-12-05T16:36:47;28.92;;;12.25;;
45322;SDS011;31382;50.200;8.674;2022-12-05T16:41:50;26.40;;;12.43;;
45322;SDS011;31382;50.200;8.674;2022-12-05T16:46:55;26.60;;;11.43;;
45322;SDS011;31382;50.200;8.674;2022-12-05T16:51:59;25.52;;;11.77;;
45322;SDS011;31382;50.200;8.674;2022-12-05T16:57:10;34.83;;;13.57;;
45322;SDS011;31382;50.200;8.674;2022-12-05T17:02:14;28.30;;;11.57;;
45322;SDS011;31382;50.200;8.674;2022-12-05T17:07:19;29.27;;;11.88;;
45322;SDS011;31382;50.200;8.674;2022-12-05T17:12:21;26.23;;;11.93;;
45322;SDS011;31382;50.200;8.674;2022-12-05T17:17:24;25.70;;;11.13;;
45322;SDS011;31382;50.200;8.674;2022-12-05T17:22:26;28.98;;;11.55;;
45322;SDS011;31382;50.200;8.674;2022-12-05T17:27:28;23.55;;;11.02;;
45322;SDS011;31382;50.200;8.674;2022-12-05T17:32:29;23.77;;;11.45;;
45322;SDS011;31382;50.200;8.674;2022-12-05T17:37:31;22.73;;;10.65;;
45322;SDS011;31382;50.200;8.674;2022-12-05T17:42:32;27.42;;;11.23;;
45322;SDS011;31382;50.200;8.674;2022-12-05T17:47:34;24.35;;;11.23;;
45322;SDS011;31382;50.200;8.674;2022-12-05T17:52:35;26.60;;;11.35;;
45322;SDS011;31382;50.200;8.674;2022-12-05T17:57:37;31.50;;;11.38;;
45322;SDS011;31382;50.200;8.674;2022-12-05T18:02:38;29.00;;;12.00;;
45322;SDS011;31382;50.200;8.674;2022-12-05T18:07:40;27.63;;;11.32;;
45322;SDS011;31382;50.200;8.674;2022-12-05T18:12:42;27.67;;;11.77;;
45322;SDS011;31382;50.200;8.674;2022-12-05T18:17:44;26.65;;;11.65;;
45322;SDS011;31382;50.200;8.674;2022-12-05T18:22:46;33.00;;;15.23;;
45322;SDS011;31382;50.200;8.674;2022-12-05T18:27:48;25.83;;;11.35;;
45322;SDS011;31382;50.200;8.674;2022-12-05T18:32:50;23.85;;;11.23;;
45322;SDS011;31382;50.200;8.674;2022-12-05T18:37:51;24.45;;;10.98;;
45322;SDS011;31382;50.200;8.674;2022-12-05T18:42:53;26.48;;;11.85;;
45322;SDS011;31382;50.200;8.674;2022-12-05T18:47:54;27.15;;;11.25;;
45322;SDS011;31382;50.200;8.674;2022-12-05T18:53:16;26.60;;;10.00;;
45322;SDS011;31382;50.200;8.674;2022-12-05T18:58:17;28.02;;;12.60;;
45322;SDS011;31382;50.200;8.674;2022-12-05T19:03:18;29.27;;;12.80;;
45322;SDS011;31382;50.200;8.674;2022-12-05T19:08:20;31.80;;;12.60;;
45322;SDS011;31382;50.200;8.674;2022-12-05T19:13:22;28.05;;;12.63;;
45322;SDS011;31382;50.200;8.674;2022-12-05T19:18:24;29.95;;;12.68;;
45322;SDS011;31382;50.200;8.674;2022-12-05T19:23:25;33.83;;;13.25;;
45322;SDS011;31382;50.200;8.674;2022-12-05T19:28:27;30.23;;;12.63;;
45322;SDS011;31382;50.200;8.674;2022-12-05T19:33:30;25.23;;;12.35;;
45322;SDS011;31382;50.200;8.674;2022-12-05T19:38:37;25.83;;;11.65;;
45322;SDS011;31382;50.200;8.674;2022-12-05T19:43:40;25.42;;;12.07;;
45322;SDS011;31382;50.200;8.674;2022-12-05T19:48:43;17.50;;;9.75;;
45322;SDS011;31382;50.200;8.674;2022-12-05T19:53:45;14.48;;;7.68;;
45322;SDS011;31382;50.200;8.674;2022-12-05T19:58:48;15.05;;;7.00;;
45322;SDS011;31382;50.200;8.674;2022-12-05T20:03:53;9.85;;;6.35;;
45322;SDS011;31382;50.200;8.674;2022-12-05T20:09:00;13.20;;;7.15;;
45322;SDS011;31382;50.200;8.674;2022-12-05T20:14:02;13.98;;;6.53;;
45322;SDS011;31382;50.200;8.674;2022-12-05T20:19:04;13.52;;;6.25;;
45322;SDS011;31382;50.200;8.674;2022-12-05T20:24:06;12.77;;;6.32;;
45322;SDS011;31382;50.200;8.674;2022-12-05T20:29:08;8.80;;;5.55;;
45322;SDS011;31382;50.200;8.674;2022-12-05T20:34:10;11.75;;;5.72;;
45322;SDS011;31382;50.200;8.674;2022-12-05T20:39:14;10.15;;;6.13;;
45322;SDS011;31382;50.200;8.674;2022-12-05T20:44:17;10.27;;;5.60;;
45322;SDS011;31382;50.200;8.674;2022-12-05T20:49:18;9.80;;;6.07;;
45322;SDS011;31382;50.200;8.674;2022-12-05T20:54:20;11.00;;;5.55;;
45322;SDS011;31382;50.200;8.674;2022-12-05T20:59:21;10.95;;;5.57;;
45322;SDS011;31382;50.200;8.674;2022-12-05T21:04:22;11.98;;;5.97;;
45322;SDS011;31382;50.200;8.674;2022-12-05T21:09:24;11.25;;;5.13;;
45322;SDS011;31382;50.200;8.674;2022-12-05T21:14:30;11.38;;;5.47;;
45322;SDS011;31382;50.200;8.674;2022-12-05T21:19:31;11.48;;;5.97;;
45322;SDS011;31382;50.200;8.674;2022-12-05T21:24:33;10.07;;;5.47;;
45322;SDS011;31382;50.200;8.674;2022-12-05T21:29:34;9.02;;;5.05;;
45322;SDS011;31382;50.200;8.674;2022-12-05T21:34:36;11.30;;;6.18;;
45322;SDS011;31382;50.200;8.674;2022-12-05T21:39:37;8.70;;;5.50;;
45322;SDS011;31382;50.200;8.674;2022-12-05T21:44:39;7.78;;;5.15;;
45322;SDS011;31382;50.200;8.674;2022-12-05T21:49:40;12.20;;;6.10;;
45322;SDS011;31382;50.200;8.674;2022-12-05T21:54:41;16.15;;;6.30;;
45322;SDS011;31382;50.200;8.674;2022-12-05T21:59:43;12.63;;;6.47;;
45322;SDS011;31382;50.200;8.674;2022-12-05T22:04:44;12.82;;;6.63;;
45322;SDS011;31382;50.200;8.674;2022-12-05T22:09:46;17.20;;;6.45;;
45322;SDS011;31382;50.200;8.674;2022-12-05T22:14:47;13.75;;;6.63;;
45322;SDS011;31382;50.200;8.674;2022-12-05T22:19:49;14.75;;;6.85;;
45322;SDS011;31382;50.200;8.674;2022-12-05T22:24:50;12.35;;;6.63;;
45322;SDS011;31382;50.200;8.674;2022-12-05T22:29:52;12.65;;;6.88;;
45322;SDS011;31382;50.200;8.674;2022-12-05T22:34:53;9.90;;;6.28;;
45322;SDS011;31382;50.200;8.674;2022-12-05T22:40:00;13.55;;;6.93;;
45322;SDS011;31382;50.200;8.674;2022-12-05T22:45:02;11.95;;;6.18;;
45322;SDS011;31382;50.200;8.674;2022-12-05T22:50:04;11.20;;;6.28;;
45322;SDS011;31382;50.200;8.674;2022-12-05T22:55:06;11.45;;;6.40;;
45322;SDS011;31382;50.200;8.674;2022-12-05T23:00:08;10.02;;;5.18;;
45322;SDS011;31382;50.200;8.674;2022-12-05T23:05:10;10.95;;;5.45;;
45322;SDS011;31382;50.200;8.674;2022-12-05T23:10:11;13.05;;;6.35;;
45322;SDS011;31382;50.200;8.674;2022-12-05T23:15:13;8.93;;;5.55;;
45322;SDS011;31382;50.200;8.674;2022-12-05T23:20:14;10.65;;;5.90;;
45322;SDS011;31382;50.200;8.674;2022-12-05T23:25:16;11.35;;;5.80;;
45322;SDS011;31382;50.200;8.674;2022-12-05T23:30:17;11.18;;;6.85;;
45322;SDS011;31382;50.200;8.674;2022-12-05T23:35:19;11.80;;;7.70;;
45322;SDS011;31382;50.200;8.674;2022-12-05T23:40:20;10.60;;;6.65;;
45322;SDS011;31382;50.200;8.674;2022-12-05T23:45:22;11.75;;;7.10;;
45322;SDS011;31382;50.200;8.674;2022-12-05T23:50:23;12.57;;;7.47;;
45322;SDS011;31382;50.200;8.674;2022-12-05T23:55:24;13.85;;;7.38;;
